Minneapolis, Minnesota
Current Conditions -  °F | °C
As of 8:53 PM on Thursday 27 Nov 2014 (Local Time) from KMSP Reporting Station
Overcast Overcast  
Wind Chill: -22°   Ceiling: 9500
Heat Index: -14°   Visibility: 10mi
Dew Point: -20°   Wind: 8mph
Humidity: 63%   Direction: 140°SE
Pressure: 30.32"   Gusts: NA
Location:  44.98°N, 93.26°W
Report Text: KMSP 280253Z 14007KT 10SM SCT080 OVC095 M14/M20 A3032 RMK AO2 SLP291 VIRGA T11441200 56022
Loading
Personal Weather Stations






























Interactive Weather Map New forecast layout! Learn more

10-Day Weather Forecast

Advertisements
Track Severe Weather on mobile